Time;durP1;ratioP1;P1;durP2;ratioP2;P2;SDS_P1;SDS_P2;PMS_P1;PMS_P2;Temp;Humidity;BMP_temperature;BMP_pressure;BME280_temperature;BME280_humidity;BME280_pressure;Samples;Min_cycle;Max_cycle;Signal;HPM_P1;HPM_P2
2024/01/20 00:00:24;;;;;;;;;27.00;25.00;;;;;;;;5068631;28;8873;-86
2024/01/20 00:02:53;;;;;;;;;38.00;34.00;;;;;;;;5068407;28;8893;-85
2024/01/20 00:05:21;;;;;;;;;29.67;23.67;;;;;;;;5066384;28;8882;-85
2024/01/20 00:07:48;;;;;;;;;24.00;21.00;;;;;;;;5067978;28;8861;-85
2024/01/20 00:10:18;;;;;;;;;19.00;13.67;;;;;;;;5070436;28;8875;-86
2024/01/20 00:12:45;;;;;;;;;18.67;17.67;;;;;;;;5070557;28;8871;-87
2024/01/20 00:15:13;;;;;;;;;17.00;16.67;;;;;;;;5071782;28;8851;-87
2024/01/20 00:17:40;;;;;;;;;23.67;20.33;;;;;;;;5069522;28;8851;-86
2024/01/20 00:20:10;;;;;;;;;29.33;28.67;;;;;;;;5063894;28;8890;-86
2024/01/20 00:22:38;;;;;;;;;36.00;29.00;;;;;;;;5069408;28;8847;-87
2024/01/20 00:25:06;;;;;;;;;25.67;24.67;;;;;;;;5069376;28;8839;-86
2024/01/20 00:27:33;;;;;;;;;19.33;17.00;;;;;;;;5070450;28;8887;-88
2024/01/20 00:30:02;;;;;;;;;15.67;14.00;;;;;;;;5071777;28;8851;-84
2024/01/20 00:32:29;;;;;;;;;19.67;16.67;;;;;;;;5071002;28;8826;-85
2024/01/20 00:34:56;;;;;;;;;20.33;18.33;;;;;;;;5077129;28;8939;-85
2024/01/20 00:37:25;;;;;;;;;23.00;16.67;;;;;;;;5074177;28;8855;-85
2024/01/20 00:39:52;;;;;;;;;16.67;16.67;;;;;;;;5075162;28;8866;-86
2024/01/20 00:42:20;;;;;;;;;19.00;18.67;;;;;;;;5075081;28;8863;-85
2024/01/20 00:44:47;;;;;;;;;17.00;17.00;;;;;;;;5061065;28;8875;-88
2024/01/20 00:47:16;;;;;;;;;20.00;20.00;;;;;;;;5070662;28;8863;-86
2024/01/20 00:49:45;;;;;;;;;26.33;20.00;;;;;;;;5070828;28;8857;-86
2024/01/20 00:52:12;;;;;;;;;21.00;15.00;;;;;;;;5071592;28;8873;-87
2024/01/20 00:54:41;;;;;;;;;23.00;21.33;;;;;;;;5072899;28;8865;-87
2024/01/20 00:57:08;;;;;;;;;19.33;18.33;;;;;;;;5073125;28;8851;-87
2024/01/20 00:59:35;;;;;;;;;12.67;12.00;;;;;;;;5072652;28;8843;-86
2024/01/20 01:02:11;;;;;;;;;23.33;18.33;;;;;;;;5070046;28;8787;-86
2024/01/20 01:04:38;;;;;;;;;25.67;20.67;;;;;;;;5073353;28;8893;-88
2024/01/20 01:07:05;;;;;;;;;29.33;21.33;;;;;;;;5077777;28;8831;-88
2024/01/20 01:09:34;;;;;;;;;20.00;19.33;;;;;;;;5083408;28;8857;-87
2024/01/20 01:12:06;;;;;;;;;15.67;15.33;;;;;;;;5084807;28;8968;-87
2024/01/20 01:14:34;;;;;;;;;16.33;12.67;;;;;;;;5075426;28;8851;-86
2024/01/20 01:17:02;;;;;;;;;25.33;21.67;;;;;;;;5074537;28;8864;-88
2024/01/20 01:19:29;;;;;;;;;28.67;28.00;;;;;;;;5076389;28;8870;-88
2024/01/20 01:21:57;;;;;;;;;18.33;17.33;;;;;;;;5072551;28;8981;-87
2024/01/20 01:24:24;;;;;;;;;23.67;20.00;;;;;;;;5073192;28;8886;-88
2024/01/20 01:26:51;;;;;;;;;20.00;20.00;;;;;;;;5072274;28;9643;-88
2024/01/20 01:29:20;;;;;;;;;21.67;21.00;;;;;;;;5072800;28;8981;-87
2024/01/20 01:31:47;;;;;;;;;21.67;18.00;;;;;;;;5069270;28;8798;-88
2024/01/20 01:34:15;;;;;;;;;20.33;18.67;;;;;;;;5071341;28;8850;-87
2024/01/20 01:36:42;;;;;;;;;19.33;17.00;;;;;;;;5069908;28;8827;-87
2024/01/20 01:39:10;;;;;;;;;25.67;21.67;;;;;;;;5071196;28;8881;-85
2024/01/20 01:41:37;;;;;;;;;18.67;18.33;;;;;;;;5072104;28;8982;-87
2024/01/20 01:44:04;;;;;;;;;22.00;20.67;;;;;;;;5073677;28;8969;-86
2024/01/20 01:46:33;;;;;;;;;19.00;16.00;;;;;;;;5073738;28;8993;-86
2024/01/20 01:49:00;;;;;;;;;18.67;18.67;;;;;;;;5075951;28;8867;-87
2024/01/20 01:51:28;;;;;;;;;25.67;20.67;;;;;;;;5073263;28;8895;-86
2024/01/20 01:53:56;;;;;;;;;24.67;24.33;;;;;;;;5072440;28;8854;-85
2024/01/20 01:56:24;;;;;;;;;18.67;17.00;;;;;;;;5071981;28;9005;-86
2024/01/20 01:58:51;;;;;;;;;26.33;24.00;;;;;;;;5072823;28;8982;-87
2024/01/20 02:01:18;;;;;;;;;25.00;22.33;;;;;;;;5070788;28;8784;-86
2024/01/20 02:03:47;;;;;;;;;17.33;15.33;;;;;;;;5072575;28;8893;-87
2024/01/20 02:06:16;;;;;;;;;20.00;20.00;;;;;;;;5071253;28;8981;-86
2024/01/20 02:08:44;;;;;;;;;16.00;16.00;;;;;;;;5072452;28;8855;-87
2024/01/20 02:11:11;;;;;;;;;23.67;16.67;;;;;;;;5063557;28;8854;-86
2024/01/20 02:13:39;;;;;;;;;15.00;15.00;;;;;;;;5075911;28;8855;-86
2024/01/20 02:16:08;;;;;;;;;21.33;16.67;;;;;;;;5078669;28;8928;-86
2024/01/20 02:18:35;;;;;;;;;20.33;16.33;;;;;;;;5075141;28;8918;-87
2024/01/20 02:21:06;;;;;;;;;20.33;16.33;;;;;;;;5077959;28;8894;-87
2024/01/20 02:23:39;;;;;;;;;20.67;20.67;;;;;;;;5074830;28;8853;-87
2024/01/20 02:26:06;;;;;;;;;26.00;19.67;;;;;;;;5069789;28;8855;-87
2024/01/20 02:28:35;;;;;;;;;16.67;16.67;;;;;;;;5074652;28;8937;-86
2024/01/20 02:31:02;;;;;;;;;25.67;18.33;;;;;;;;5067228;28;8849;-86
2024/01/20 02:33:32;;;;;;;;;23.00;21.00;;;;;;;;5063277;28;8869;-86
2024/01/20 02:36:00;;;;;;;;;10.33;10.33;;;;;;;;5067649;28;8854;-86
2024/01/20 02:38:27;;;;;;;;;18.67;18.00;;;;;;;;5062602;28;8845;-86
2024/01/20 02:40:56;;;;;;;;;18.00;18.00;;;;;;;;5071381;28;9237;-86
2024/01/20 02:43:23;;;;;;;;;25.33;20.67;;;;;;;;5065474;28;8869;-86
2024/01/20 02:45:51;;;;;;;;;24.67;20.67;;;;;;;;5064381;28;8897;-87
2024/01/20 02:48:19;;;;;;;;;23.00;17.33;;;;;;;;5071019;28;8839;-87
2024/01/20 02:50:49;;;;;;;;;21.67;15.67;;;;;;;;5070429;28;8882;-86
2024/01/20 02:53:16;;;;;;;;;23.00;20.33;;;;;;;;5059964;28;8855;-86
2024/01/20 02:55:45;;;;;;;;;19.33;17.00;;;;;;;;5073359;28;8851;-88
2024/01/20 02:58:15;;;;;;;;;21.67;21.67;;;;;;;;5075527;28;8859;-87
2024/01/20 03:00:42;;;;;;;;;24.33;21.33;;;;;;;;5073933;28;8778;-87
2024/01/20 03:03:12;;;;;;;;;34.00;21.33;;;;;;;;5065278;28;8863;-87
2024/01/20 03:05:39;;;;;;;;;30.00;24.67;;;;;;;;5069424;28;8862;-87
2024/01/20 03:08:07;;;;;;;;;27.67;22.00;;;;;;;;5070088;28;8851;-86
2024/01/20 03:10:34;;;;;;;;;27.33;22.00;;;;;;;;5069982;28;8842;-88
2024/01/20 03:13:01;;;;;;;;;25.67;20.67;;;;;;;;5070275;28;8866;-86
2024/01/20 03:15:30;;;;;;;;;21.67;21.67;;;;;;;;5070812;28;8931;-86
2024/01/20 03:17:57;;;;;;;;;26.33;24.67;;;;;;;;5070954;28;8842;-88
2024/01/20 03:20:25;;;;;;;;;19.33;17.67;;;;;;;;5069063;28;9017;-87
2024/01/20 03:22:53;;;;;;;;;27.33;22.00;;;;;;;;5071229;28;8878;-87
2024/01/20 03:25:24;;;;;;;;;22.00;22.00;;;;;;;;5070626;28;8843;-87
2024/01/20 03:27:54;;;;;;;;;19.33;16.67;;;;;;;;5070662;28;8939;-87
2024/01/20 03:30:23;;;;;;;;;22.67;21.00;;;;;;;;5067879;28;8875;-88
2024/01/20 03:32:52;;;;;;;;;23.00;22.33;;;;;;;;5070426;28;8866;-87
2024/01/20 03:35:20;;;;;;;;;23.67;16.67;;;;;;;;5069339;28;8877;-87
2024/01/20 03:37:47;;;;;;;;;25.67;24.67;;;;;;;;5058280;28;8857;-88
2024/01/20 03:40:14;;;;;;;;;28.67;24.33;;;;;;;;5061393;28;8865;-88
2024/01/20 03:42:42;;;;;;;;;26.33;18.67;;;;;;;;5070527;28;8862;-87
2024/01/20 03:45:12;;;;;;;;;26.67;20.33;;;;;;;;5070887;28;8877;-87
2024/01/20 03:47:39;;;;;;;;;34.00;28.67;;;;;;;;5071125;28;8846;-87
2024/01/20 03:50:09;;;;;;;;;27.00;26.67;;;;;;;;5063727;28;8871;-87
2024/01/20 03:52:37;;;;;;;;;26.00;26.00;;;;;;;;5062285;28;8869;-86
2024/01/20 03:55:06;;;;;;;;;31.00;30.00;;;;;;;;5075079;28;8835;-86
2024/01/20 03:57:33;;;;;;;;;29.33;27.00;;;;;;;;5059923;28;8857;-86
2024/01/20 04:00:00;;;;;;;;;22.67;22.33;;;;;;;;5065674;28;8885;-86
2024/01/20 04:02:33;;;;;;;;;30.00;23.00;;;;;;;;5067174;28;8887;-85
2024/01/20 04:05:01;;;;;;;;;25.67;21.00;;;;;;;;5075534;28;8858;-86
2024/01/20 04:07:29;;;;;;;;;25.67;25.67;;;;;;;;5074861;28;8965;-86
2024/01/20 04:09:57;;;;;;;;;19.33;19.33;;;;;;;;5072802;28;8885;-87
2024/01/20 04:12:26;;;;;;;;;30.33;28.00;;;;;;;;5070451;28;8858;-87
2024/01/20 04:14:55;;;;;;;;;27.67;27.67;;;;;;;;5067094;28;8923;-87
2024/01/20 04:17:22;;;;;;;;;25.00;23.33;;;;;;;;5071510;28;8858;-87
2024/01/20 04:19:50;;;;;;;;;30.67;27.67;;;;;;;;5085372;28;8961;-84
2024/01/20 04:22:17;;;;;;;;;23.67;23.67;;;;;;;;5090969;28;8858;-86
2024/01/20 04:24:45;;;;;;;;;28.00;21.00;;;;;;;;5075081;28;8865;-86
2024/01/20 04:27:13;;;;;;;;;25.00;23.33;;;;;;;;5066915;28;8877;-86
2024/01/20 04:29:40;;;;;;;;;38.00;37.00;;;;;;;;5062643;28;8868;-86
2024/01/20 04:32:07;;;;;;;;;27.67;27.33;;;;;;;;5064233;28;8815;-85
2024/01/20 04:34:35;;;;;;;;;29.00;24.00;;;;;;;;5052132;28;9744;-87
2024/01/20 04:37:02;;;;;;;;;26.67;25.33;;;;;;;;5071960;28;8989;-87
2024/01/20 04:39:29;;;;;;;;;24.00;17.00;;;;;;;;5064103;28;8853;-86
2024/01/20 04:41:59;;;;;;;;;31.67;27.00;;;;;;;;5074155;28;8889;-86
2024/01/20 04:44:26;;;;;;;;;24.33;22.33;;;;;;;;5071278;28;8855;-87
2024/01/20 04:46:54;;;;;;;;;30.67;26.67;;;;;;;;5065766;28;8855;-87
2024/01/20 04:49:21;;;;;;;;;30.00;24.67;;;;;;;;5060671;28;8938;-86
2024/01/20 04:51:49;;;;;;;;;26.33;22.67;;;;;;;;5069883;28;8867;-85
2024/01/20 04:54:16;;;;;;;;;28.33;28.33;;;;;;;;5050878;28;8885;-87
2024/01/20 04:56:43;;;;;;;;;30.00;26.33;;;;;;;;5069338;28;8859;-87
2024/01/20 04:59:12;;;;;;;;;27.33;21.33;;;;;;;;5071191;28;8865;-86
2024/01/20 05:01:39;;;;;;;;;26.67;20.67;;;;;;;;5071481;28;8809;-85
2024/01/20 05:04:09;;;;;;;;;25.67;21.67;;;;;;;;5063102;28;8925;-85
2024/01/20 05:06:36;;;;;;;;;25.67;22.67;;;;;;;;5067243;28;8893;-86
2024/01/20 05:09:04;;;;;;;;;30.00;27.00;;;;;;;;5060538;28;8863;-86
2024/01/20 05:11:31;;;;;;;;;23.33;22.00;;;;;;;;5067530;28;8863;-86
2024/01/20 05:13:59;;;;;;;;;26.00;23.00;;;;;;;;5067847;28;8886;-86
2024/01/20 05:16:27;;;;;;;;;30.33;27.00;;;;;;;;5068137;28;8893;-86
2024/01/20 05:18:54;;;;;;;;;19.00;19.00;;;;;;;;5068378;28;8883;-86
2024/01/20 05:21:23;;;;;;;;;29.67;23.33;;;;;;;;5068889;28;8874;-85
2024/01/20 05:23:50;;;;;;;;;34.33;29.33;;;;;;;;5069122;28;8873;-87
2024/01/20 05:26:17;;;;;;;;;27.33;23.67;;;;;;;;5066005;28;8873;-87
2024/01/20 05:28:48;;;;;;;;;31.00;27.33;;;;;;;;5067652;28;8939;-87
2024/01/20 05:31:24;;;;;;;;;22.67;21.33;;;;;;;;5067035;28;8920;-85
2024/01/20 05:33:53;;;;;;;;;31.33;30.33;;;;;;;;5069250;28;8850;-86
2024/01/20 05:36:22;;;;;;;;;25.00;25.00;;;;;;;;5074083;28;8851;-86
2024/01/20 05:38:49;;;;;;;;;24.33;23.67;;;;;;;;5076875;28;8866;-87
2024/01/20 05:41:17;;;;;;;;;28.00;23.33;;;;;;;;5077680;28;8888;-87
2024/01/20 05:43:44;;;;;;;;;24.33;19.67;;;;;;;;5078427;28;8969;-85
2024/01/20 05:46:12;;;;;;;;;26.00;25.67;;;;;;;;5068597;28;8960;-86
2024/01/20 05:48:39;;;;;;;;;20.00;20.00;;;;;;;;5071344;28;8855;-86
2024/01/20 05:51:08;;;;;;;;;26.00;20.33;;;;;;;;5074994;28;9033;-86
2024/01/20 05:53:35;;;;;;;;;24.67;22.67;;;;;;;;5077157;28;8859;-87
2024/01/20 05:56:03;;;;;;;;;29.00;25.00;;;;;;;;5069001;28;9605;-87
2024/01/20 05:58:33;;;;;;;;;19.00;16.00;;;;;;;;5072447;28;8851;-87
2024/01/20 06:01:00;;;;;;;;;18.00;17.33;;;;;;;;5071247;28;8905;-87
2024/01/20 06:03:28;;;;;;;;;20.00;19.00;;;;;;;;5071904;28;8970;-87
2024/01/20 06:05:55;;;;;;;;;24.33;18.67;;;;;;;;5066974;28;8861;-87
2024/01/20 06:08:26;;;;;;;;;25.67;23.67;;;;;;;;5068679;28;8867;-87
2024/01/20 06:10:53;;;;;;;;;28.33;26.33;;;;;;;;5069747;28;8849;-86
2024/01/20 06:13:20;;;;;;;;;20.00;19.00;;;;;;;;5071642;28;8863;-87
2024/01/20 06:15:48;;;;;;;;;18.33;17.33;;;;;;;;5071516;28;8863;-86
2024/01/20 06:18:15;;;;;;;;;40.00;27.00;;;;;;;;5068906;28;8857;-87
2024/01/20 06:20:42;;;;;;;;;23.00;23.00;;;;;;;;5072474;28;8873;-86
2024/01/20 06:23:10;;;;;;;;;18.67;16.33;;;;;;;;5072548;28;8863;-85
2024/01/20 06:25:39;;;;;;;;;36.67;29.00;;;;;;;;5075776;28;8987;-85
2024/01/20 06:28:06;;;;;;;;;30.67;28.67;;;;;;;;5073683;28;8879;-86
2024/01/20 06:30:37;;;;;;;;;29.67;26.67;;;;;;;;5072225;28;9522;-88
2024/01/20 06:33:05;;;;;;;;;31.67;29.33;;;;;;;;5067923;28;8874;-86
2024/01/20 06:35:32;;;;;;;;;40.00;37.00;;;;;;;;5068497;28;9662;-87
2024/01/20 06:38:00;;;;;;;;;35.00;32.67;;;;;;;;5069110;28;8863;-87
2024/01/20 06:40:27;;;;;;;;;29.67;26.67;;;;;;;;5071448;28;8843;-86
2024/01/20 06:42:56;;;;;;;;;35.00;29.00;;;;;;;;5068939;28;8850;-85
2024/01/20 06:45:23;;;;;;;;;34.33;26.33;;;;;;;;5069667;28;8869;-84
2024/01/20 06:47:50;;;;;;;;;21.67;21.67;;;;;;;;5067572;28;8835;-88
2024/01/20 06:50:18;;;;;;;;;28.67;26.00;;;;;;;;5070292;28;9041;-86
2024/01/20 06:52:48;;;;;;;;;28.33;23.33;;;;;;;;5071008;28;8888;-87
2024/01/20 06:55:15;;;;;;;;;29.67;20.33;;;;;;;;5068475;28;8843;-89
2024/01/20 06:57:43;;;;;;;;;33.00;29.33;;;;;;;;5067769;28;8865;-86
2024/01/20 07:00:13;;;;;;;;;20.33;20.33;;;;;;;;5067571;28;8867;-87
2024/01/20 07:02:41;;;;;;;;;32.67;27.67;;;;;;;;5071249;28;8982;-85
2024/01/20 07:05:09;;;;;;;;;30.00;22.33;;;;;;;;5069964;28;8865;-85
2024/01/20 07:07:38;;;;;;;;;30.33;23.33;;;;;;;;5068197;28;8854;-87
2024/01/20 07:10:09;;;;;;;;;27.67;23.67;;;;;;;;5063513;28;8869;-87
2024/01/20 07:12:37;;;;;;;;;29.00;23.00;;;;;;;;5062382;28;8867;-86
2024/01/20 07:15:05;;;;;;;;;33.00;20.00;;;;;;;;5070410;28;8847;-87
2024/01/20 07:17:45;;;;;;;;;25.33;21.33;;;;;;;;5071295;28;8863;-86
2024/01/20 07:20:14;;;;;;;;;34.00;28.67;;;;;;;;5071491;28;8854;-85
2024/01/20 07:22:41;;;;;;;;;29.33;27.67;;;;;;;;5070778;28;8867;-85
2024/01/20 07:25:12;;;;;;;;;27.33;26.00;;;;;;;;5073422;28;8882;-86
2024/01/20 07:27:40;;;;;;;;;30.00;26.00;;;;;;;;5078030;28;8866;-86
2024/01/20 07:30:08;;;;;;;;;43.33;35.67;;;;;;;;5074291;28;8897;-90
2024/01/20 07:32:40;;;;;;;;;37.00;33.33;;;;;;;;5062663;28;8850;-87
2024/01/20 07:35:09;;;;;;;;;41.67;36.33;;;;;;;;5067663;28;8870;-87
2024/01/20 07:37:37;;;;;;;;;40.33;32.00;;;;;;;;5077539;28;8992;-85
2024/01/20 07:40:09;;;;;;;;;36.33;29.67;;;;;;;;5077218;28;8900;-89
2024/01/20 07:42:36;;;;;;;;;32.33;27.33;;;;;;;;5078856;28;8885;-87
2024/01/20 07:45:04;;;;;;;;;35.67;27.00;;;;;;;;5069844;28;8851;-87
2024/01/20 07:47:33;;;;;;;;;35.33;30.67;;;;;;;;5068321;28;8893;-76
2024/01/20 07:50:07;;;;;;;;;37.00;33.33;;;;;;;;5057210;28;8880;-75
2024/01/20 07:52:34;;;;;;;;;42.33;36.67;;;;;;;;5076882;28;8847;-76
2024/01/20 07:55:02;;;;;;;;;38.67;31.67;;;;;;;;5069668;28;8858;-73
2024/01/20 07:57:31;;;;;;;;;35.33;32.67;;;;;;;;5064733;28;8862;-72
2024/01/20 07:59:58;;;;;;;;;34.00;23.33;;;;;;;;5063113;28;8875;-78
2024/01/20 08:02:25;;;;;;;;;29.67;25.33;;;;;;;;5064695;28;8817;-76
2024/01/20 08:04:52;;;;;;;;;19.00;16.00;;;;;;;;5067723;28;8859;-72
2024/01/20 08:07:21;;;;;;;;;33.00;26.33;;;;;;;;5066455;28;8850;-77
2024/01/20 08:09:48;;;;;;;;;26.33;24.33;;;;;;;;5066970;28;9001;-73
2024/01/20 08:12:16;;;;;;;;;26.33;23.00;;;;;;;;5058975;28;8858;-72
2024/01/20 08:14:43;;;;;;;;;26.33;20.00;;;;;;;;5072864;28;8885;-76
2024/01/20 08:17:10;;;;;;;;;38.33;32.67;;;;;;;;5074240;28;8883;-73
2024/01/20 08:19:37;;;;;;;;;42.00;33.33;;;;;;;;5070032;28;8855;-72
2024/01/20 08:22:06;;;;;;;;;36.33;28.67;;;;;;;;5066800;28;8872;-76
2024/01/20 08:24:35;;;;;;;;;29.67;25.00;;;;;;;;5066762;28;8827;-73
2024/01/20 08:27:02;;;;;;;;;36.67;29.67;;;;;;;;5067805;28;9927;-74
2024/01/20 08:29:30;;;;;;;;;36.00;33.33;;;;;;;;5068167;28;8858;-81
2024/01/20 08:31:57;;;;;;;;;33.67;28.00;;;;;;;;5066869;28;8946;-79
2024/01/20 08:34:24;;;;;;;;;28.33;22.00;;;;;;;;5067085;28;8957;-73
2024/01/20 08:36:51;;;;;;;;;32.33;27.67;;;;;;;;5069713;28;8874;-75
2024/01/20 08:39:19;;;;;;;;;30.33;28.33;;;;;;;;5068610;28;8912;-82
2024/01/20 08:41:47;;;;;;;;;35.00;30.67;;;;;;;;5070239;28;8843;-81
2024/01/20 08:44:15;;;;;;;;;29.00;17.33;;;;;;;;5066746;28;8858;-82
2024/01/20 08:46:42;;;;;;;;;19.33;16.33;;;;;;;;5070277;28;8835;-85
2024/01/20 08:49:09;;;;;;;;;40.00;32.33;;;;;;;;5068606;28;8888;-78
2024/01/20 08:51:36;;;;;;;;;32.33;29.00;;;;;;;;5069731;28;8855;-84
2024/01/20 08:54:04;;;;;;;;;25.00;25.00;;;;;;;;5065214;28;8879;-80
2024/01/20 08:56:31;;;;;;;;;31.67;29.33;;;;;;;;5068724;28;8875;-80
2024/01/20 08:58:59;;;;;;;;;33.00;30.33;;;;;;;;5066387;28;9605;-81
2024/01/20 09:01:27;;;;;;;;;38.67;35.33;;;;;;;;5068205;28;9553;-84
2024/01/20 09:03:54;;;;;;;;;27.67;24.67;;;;;;;;5065018;28;8869;-82
2024/01/20 09:06:21;;;;;;;;;34.00;26.67;;;;;;;;5063360;28;8870;-79
2024/01/20 09:08:48;;;;;;;;;31.33;23.67;;;;;;;;5062979;28;9628;-81
2024/01/20 09:11:16;;;;;;;;;23.33;23.33;;;;;;;;5072220;28;8839;-85
2024/01/20 09:13:43;;;;;;;;;24.00;22.33;;;;;;;;5074766;28;8835;-79
2024/01/20 09:16:12;;;;;;;;;29.67;28.00;;;;;;;;5077203;28;8859;-78
2024/01/20 09:18:39;;;;;;;;;32.33;29.67;;;;;;;;5077307;28;8866;-83
2024/01/20 09:21:19;;;;;;;;;37.00;29.67;;;;;;;;5077660;28;8900;-79
2024/01/20 09:23:46;;;;;;;;;37.67;32.67;;;;;;;;5069001;28;8871;-81
2024/01/20 09:26:13;;;;;;;;;38.67;32.33;;;;;;;;5079291;28;8953;-78
2024/01/20 09:28:41;;;;;;;;;48.33;42.67;;;;;;;;5079357;28;9344;-80
2024/01/20 09:31:08;;;;;;;;;36.00;33.00;;;;;;;;5074704;28;8810;-85
2024/01/20 09:33:37;;;;;;;;;35.33;33.00;;;;;;;;5073716;28;8858;-84
2024/01/20 09:36:04;;;;;;;;;29.67;28.33;;;;;;;;5069135;28;9663;-75
2024/01/20 09:38:32;;;;;;;;;31.33;24.33;;;;;;;;5068408;28;8894;-79
2024/01/20 09:40:59;;;;;;;;;29.33;24.00;;;;;;;;5067897;28;9605;-80
2024/01/20 09:43:28;;;;;;;;;35.00;28.00;;;;;;;;5071496;28;8858;-73
2024/01/20 09:45:56;;;;;;;;;37.00;32.33;;;;;;;;5068056;28;8887;-73
2024/01/20 09:48:23;;;;;;;;;22.00;22.00;;;;;;;;5072254;28;8877;-82
2024/01/20 09:50:52;;;;;;;;;22.33;19.00;;;;;;;;5070927;28;8846;-84
2024/01/20 09:53:19;;;;;;;;;32.00;29.33;;;;;;;;5071191;28;8931;-80
2024/01/20 09:55:47;;;;;;;;;39.00;34.33;;;;;;;;5065812;28;8989;-76
2024/01/20 09:58:16;;;;;;;;;34.33;28.67;;;;;;;;5071550;28;8875;-77
2024/01/20 10:00:44;;;;;;;;;33.33;26.67;;;;;;;;5064642;28;8825;-78
2024/01/20 10:03:15;;;;;;;;;23.33;19.67;;;;;;;;5073950;28;8889;-84
2024/01/20 10:05:42;;;;;;;;;35.33;26.00;;;;;;;;5067444;28;8871;-82
2024/01/20 10:08:12;;;;;;;;;27.00;25.67;;;;;;;;5068192;28;8973;-78
2024/01/20 10:10:39;;;;;;;;;30.00;22.00;;;;;;;;5062615;28;8943;-84
2024/01/20 10:13:09;;;;;;;;;33.00;26.67;;;;;;;;5064039;28;8900;-76
2024/01/20 10:15:36;;;;;;;;;27.00;25.00;;;;;;;;5069464;28;8871;-77
2024/01/20 10:18:08;;;;;;;;;32.33;26.00;;;;;;;;5069755;28;9711;-76
2024/01/20 10:20:35;;;;;;;;;23.33;21.33;;;;;;;;5069692;28;8860;-80
2024/01/20 10:23:04;;;;;;;;;32.67;30.67;;;;;;;;5067941;28;8850;-73
2024/01/20 10:25:33;;;;;;;;;41.67;38.00;;;;;;;;5070586;28;8924;-76
2024/01/20 10:28:00;;;;;;;;;39.00;31.67;;;;;;;;5068200;28;8854;-78
2024/01/20 10:30:28;;;;;;;;;54.00;45.00;;;;;;;;5067347;28;8783;-76
2024/01/20 10:32:55;;;;;;;;;39.33;36.33;;;;;;;;5066187;28;8845;-79
2024/01/20 10:35:23;;;;;;;;;36.67;32.33;;;;;;;;5066837;28;8870;-79
2024/01/20 10:37:50;;;;;;;;;35.33;34.00;;;;;;;;5068393;28;8869;-79
2024/01/20 10:40:18;;;;;;;;;47.67;39.00;;;;;;;;5070733;28;8878;-80
2024/01/20 10:42:49;;;;;;;;;28.00;26.33;;;;;;;;5071531;28;9001;-74
2024/01/20 10:45:18;;;;;;;;;39.67;37.00;;;;;;;;5074129;28;8935;-76
2024/01/20 10:47:56;;;;;;;;;36.00;34.00;;;;;;;;5073275;28;8847;-78
2024/01/20 10:50:25;;;;;;;;;39.67;37.67;;;;;;;;5069781;28;8858;-80
2024/01/20 10:52:53;;;;;;;;;40.67;36.00;;;;;;;;5069773;28;8867;-79
2024/01/20 10:55:21;;;;;;;;;41.00;33.00;;;;;;;;5062986;28;8948;-80
2024/01/20 10:57:50;;;;;;;;;42.67;38.00;;;;;;;;5069128;28;8969;-80
2024/01/20 11:00:18;;;;;;;;;27.33;24.33;;;;;;;;5070691;28;8835;-80
2024/01/20 11:02:46;;;;;;;;;33.67;30.33;;;;;;;;5072312;28;8847;-80
2024/01/20 11:05:21;;;;;;;;;28.67;24.33;;;;;;;;5073495;28;8870;-78
2024/01/20 11:08:04;;;;;;;;;30.33;28.00;;;;;;;;5062743;28;8855;-82
2024/01/20 11:10:38;;;;;;;;;35.33;28.33;;;;;;;;5065931;28;8841;-80
2024/01/20 11:13:08;;;;;;;;;22.33;22.33;;;;;;;;5068938;28;8854;-75
2024/01/20 11:15:36;;;;;;;;;27.33;22.00;;;;;;;;5073976;28;8920;-80
2024/01/20 11:18:03;;;;;;;;;30.33;20.67;;;;;;;;5071365;28;8981;-77
2024/01/20 11:20:31;;;;;;;;;24.00;19.67;;;;;;;;5071403;28;8873;-82
2024/01/20 11:23:00;;;;;;;;;26.33;22.00;;;;;;;;5070046;28;13589;-78
2024/01/20 11:25:33;;;;;;;;;25.67;25.67;;;;;;;;5072587;28;11558;-81
2024/01/20 11:28:00;;;;;;;;;25.67;23.00;;;;;;;;5069935;28;11571;-78
2024/01/20 11:30:34;;;;;;;;;26.33;22.67;;;;;;;;5069017;28;11523;-81
2024/01/20 11:33:02;;;;;;;;;37.33;29.67;;;;;;;;5067905;28;11587;-75
2024/01/20 11:35:30;;;;;;;;;26.67;22.33;;;;;;;;5069166;28;11704;-77
2024/01/20 11:37:57;;;;;;;;;37.67;30.00;;;;;;;;5065371;28;11658;-79
2024/01/20 11:40:27;;;;;;;;;36.33;29.33;;;;;;;;5068463;28;11581;-74
2024/01/20 11:43:05;;;;;;;;;28.33;28.33;;;;;;;;5067631;28;12534;-80
2024/01/20 11:45:34;;;;;;;;;36.00;31.00;;;;;;;;5069726;28;11566;-74
2024/01/20 11:48:01;;;;;;;;;28.67;25.67;;;;;;;;5069963;28;11596;-77
2024/01/20 11:50:28;;;;;;;;;23.25;23.25;;;;;;;;5071265;28;12380;-74
2024/01/20 11:52:55;;;;;;;;;26.50;22.00;;;;;;;;5069665;28;11670;-76
2024/01/20 11:55:23;;;;;;;;;25.00;23.50;;;;;;;;5063530;28;11565;-76
2024/01/20 11:57:50;;;;;;;;;31.33;27.00;;;;;;;;5067923;28;11566;-74
2024/01/20 12:00:21;;;;;;;;;31.00;31.00;;;;;;;;5067662;28;11569;-77
2024/01/20 12:02:52;;;;;;;;;19.50;16.75;;;;;;;;5067797;28;11559;-76
2024/01/20 12:05:19;;;;;;;;;28.00;26.00;;;;;;;;5067857;28;11669;-75
2024/01/20 12:07:50;;;;;;;;;30.25;24.50;;;;;;;;5067445;28;11732;-76
2024/01/20 12:10:17;;;;;;;;;28.25;20.00;;;;;;;;5064081;28;11642;-74
2024/01/20 12:12:48;;;;;;;;;26.50;23.50;;;;;;;;5060257;28;11587;-75
2024/01/20 12:15:16;;;;;;;;;28.50;26.75;;;;;;;;5068106;28;12333;-74
2024/01/20 12:17:43;;;;;;;;;28.25;25.00;;;;;;;;5068428;28;11567;-74
2024/01/20 12:20:12;;;;;;;;;23.50;22.75;;;;;;;;5067612;28;11655;-74
2024/01/20 12:22:39;;;;;;;;;25.00;24.50;;;;;;;;5067806;28;11567;-74
2024/01/20 12:25:08;;;;;;;;;24.50;20.00;;;;;;;;5067196;28;11585;-75
2024/01/20 12:27:35;;;;;;;;;31.50;27.75;;;;;;;;5067056;28;11564;-75
2024/01/20 12:30:03;;;;;;;;;24.75;23.00;;;;;;;;5067309;28;12483;-77
2024/01/20 12:32:30;;;;;;;;;22.25;22.25;;;;;;;;5067293;28;11521;-76
2024/01/20 12:34:59;;;;;;;;;17.25;15.75;;;;;;;;5067691;28;11700;-76
2024/01/20 12:37:27;;;;;;;;;35.25;29.75;;;;;;;;5066042;28;11557;-75
2024/01/20 12:39:55;;;;;;;;;28.00;26.50;;;;;;;;5067342;28;11583;-76
2024/01/20 12:42:22;;;;;;;;;13.50;12.00;;;;;;;;5070009;28;11629;-77
2024/01/20 12:44:49;;;;;;;;;28.75;28.75;;;;;;;;5070557;28;11685;-79
2024/01/20 12:47:17;;;;;;;;;27.50;21.75;;;;;;;;5071960;28;11555;-77
2024/01/20 12:49:46;;;;;;;;;24.25;21.75;;;;;;;;5073912;28;11553;-77
2024/01/20 12:52:13;;;;;;;;;30.00;25.00;;;;;;;;5075349;28;11558;-76
2024/01/20 12:54:43;;;;;;;;;45.25;40.00;;;;;;;;5076148;28;11578;-79
2024/01/20 12:57:10;;;;;;;;;39.75;35.00;;;;;;;;5075900;28;11584;-75
2024/01/20 12:59:37;;;;;;;;;45.75;37.00;;;;;;;;5074040;28;11691;-77
2024/01/20 13:02:05;;;;;;;;;27.50;27.00;;;;;;;;5075837;28;11564;-74
2024/01/20 13:04:34;;;;;;;;;36.75;31.50;;;;;;;;5073623;28;11596;-76
2024/01/20 13:07:01;;;;;;;;;37.50;32.50;;;;;;;;5073030;28;11564;-73
2024/01/20 13:09:29;;;;;;;;;29.00;26.75;;;;;;;;5071313;28;11613;-75
2024/01/20 13:12:00;;;;;;;;;30.50;28.75;;;;;;;;5057629;28;11583;-74
2024/01/20 13:14:27;;;;;;;;;23.00;22.75;;;;;;;;5070886;28;11588;-78
2024/01/20 13:16:55;;;;;;;;;35.25;26.75;;;;;;;;5070338;28;12360;-73
2024/01/20 13:19:22;;;;;;;;;57.25;46.75;;;;;;;;5070709;28;11577;-74
2024/01/20 13:21:49;;;;;;;;;36.50;31.25;;;;;;;;5070130;28;11596;-75
2024/01/20 13:24:16;;;;;;;;;23.75;21.50;;;;;;;;5070811;28;11586;-74
2024/01/20 13:26:44;;;;;;;;;43.00;37.50;;;;;;;;5070985;28;11547;-73
2024/01/20 13:29:13;;;;;;;;;34.25;30.25;;;;;;;;5068855;28;11597;-75
2024/01/20 13:31:42;;;;;;;;;34.25;31.00;;;;;;;;5070873;28;11528;-77
2024/01/20 13:34:10;;;;;;;;;42.25;36.50;;;;;;;;5069894;28;11551;-73
2024/01/20 13:36:37;;;;;;;;;44.50;41.25;;;;;;;;5072126;28;11585;-76
2024/01/20 13:39:04;;;;;;;;;28.25;25.50;;;;;;;;5071985;28;12527;-74
2024/01/20 13:41:33;;;;;;;;;32.00;27.50;;;;;;;;5072111;28;11558;-73
2024/01/20 13:44:00;;;;;;;;;33.50;30.25;;;;;;;;5071812;28;11577;-75
2024/01/20 13:46:29;;;;;;;;;28.25;28.25;;;;;;;;5070185;28;12412;-74
2024/01/20 13:48:56;;;;;;;;;38.50;37.25;;;;;;;;5071624;28;11577;-75
2024/01/20 13:51:25;;;;;;;;;22.00;22.00;;;;;;;;5074271;28;11704;-74
2024/01/20 13:53:52;;;;;;;;;32.00;26.50;;;;;;;;5074573;28;11688;-75
2024/01/20 13:56:20;;;;;;;;;42.00;37.00;;;;;;;;5072596;28;12515;-74
2024/01/20 13:58:47;;;;;;;;;21.50;18.50;;;;;;;;5070921;28;11607;-77
2024/01/20 14:01:15;;;;;;;;;32.75;30.75;;;;;;;;5070409;28;11545;-74
2024/01/20 14:03:43;;;;;;;;;27.75;27.00;;;;;;;;5069390;28;11678;-73
2024/01/20 14:06:10;;;;;;;;;35.25;27.75;;;;;;;;5068968;28;11583;-77
2024/01/20 14:08:40;;;;;;;;;31.25;29.75;;;;;;;;5069407;28;11603;-75
2024/01/20 14:11:07;;;;;;;;;32.75;29.50;;;;;;;;5070508;28;11648;-74
2024/01/20 14:13:36;;;;;;;;;19.25;16.75;;;;;;;;5070549;28;11578;-82
2024/01/20 14:16:04;;;;;;;;;29.25;29.25;;;;;;;;5070523;28;11577;-77
2024/01/20 14:18:31;;;;;;;;;34.25;33.00;;;;;;;;5069536;28;11587;-79
2024/01/20 14:21:02;;;;;;;;;25.00;25.00;;;;;;;;5070054;28;11696;-79
2024/01/20 14:23:29;;;;;;;;;27.25;26.00;;;;;;;;5069809;28;11612;-79
2024/01/20 14:26:14;;;;;;;;;28.50;27.50;;;;;;;;5069579;28;11716;-76
2024/01/20 14:28:42;;;;;;;;;27.50;27.50;;;;;;;;5071629;28;11602;-81
2024/01/20 14:31:09;;;;;;;;;31.50;27.00;;;;;;;;5072142;28;11546;-77